sensor_id;sensor_type;location;lat;lon;timestamp;pressure;altitude;pressure_sealevel;temperature;humidity
37852;BME280;23691;52.486;4.650;2024-03-06T00:00:23;101812.16;;;8.90;78.27
37852;BME280;23691;52.486;4.650;2024-03-06T00:03:07;101806.09;;;8.88;78.45
37852;BME280;23691;52.486;4.650;2024-03-06T00:06:10;101811.41;;;8.88;78.53
37852;BME280;23691;52.486;4.650;2024-03-06T00:09:09;101820.28;;;8.88;78.56
37852;BME280;23691;52.486;4.650;2024-03-06T00:12:05;101821.66;;;8.82;78.66
37852;BME280;23691;52.486;4.650;2024-03-06T00:14:56;101825.88;;;8.85;78.50
37852;BME280;23691;52.486;4.650;2024-03-06T00:17:59;101823.19;;;8.85;78.43
37852;BME280;23691;52.486;4.650;2024-03-06T00:20:51;101830.25;;;8.86;78.33
37852;BME280;23691;52.486;4.650;2024-03-06T00:23:32;101832.06;;;8.86;78.32
37852;BME280;23691;52.486;4.650;2024-03-06T00:26:15;101833.75;;;8.87;78.39
37852;BME280;23691;52.486;4.650;2024-03-06T00:29:10;101829.38;;;8.86;78.10
37852;BME280;23691;52.486;4.650;2024-03-06T00:32:09;101831.22;;;8.85;78.25
37852;BME280;23691;52.486;4.650;2024-03-06T00:35:00;101840.06;;;8.86;78.20
37852;BME280;23691;52.486;4.650;2024-03-06T00:38:26;101840.19;;;8.84;78.19
37852;BME280;23691;52.486;4.650;2024-03-06T00:41:24;101842.72;;;8.86;78.22
37852;BME280;23691;52.486;4.650;2024-03-06T00:44:56;101841.03;;;8.85;78.25
37852;BME280;23691;52.486;4.650;2024-03-06T00:51:09;101857.06;;;8.85;78.10
37852;BME280;23691;52.486;4.650;2024-03-06T00:54:25;101857.91;;;8.85;78.25
37852;BME280;23691;52.486;4.650;2024-03-06T00:57:32;101860.72;;;8.84;78.18
37852;BME280;23691;52.486;4.650;2024-03-06T01:00:21;101865.19;;;8.83;77.95
37852;BME280;23691;52.486;4.650;2024-03-06T01:03:07;101867.84;;;8.83;78.09
37852;BME280;23691;52.486;4.650;2024-03-06T01:05:46;101866.06;;;8.84;78.17
37852;BME280;23691;52.486;4.650;2024-03-06T01:09:04;101868.84;;;8.82;78.15
37852;BME280;23691;52.486;4.650;2024-03-06T01:16:05;101872.34;;;8.82;78.05
37852;BME280;23691;52.486;4.650;2024-03-06T01:22:43;101869.09;;;8.79;77.90
37852;BME280;23691;52.486;4.650;2024-03-06T01:25:27;101865.44;;;8.80;77.92
37852;BME280;23691;52.486;4.650;2024-03-06T01:28:59;101861.09;;;8.79;77.88
37852;BME280;23691;52.486;4.650;2024-03-06T01:31:53;101871.75;;;8.79;77.76
37852;BME280;23691;52.486;4.650;2024-03-06T01:34:40;101869.94;;;8.79;77.72
37852;BME280;23691;52.486;4.650;2024-03-06T01:37:43;101883.41;;;8.78;77.61
37852;BME280;23691;52.486;4.650;2024-03-06T01:43:39;101889.00;;;8.75;77.57
37852;BME280;23691;52.486;4.650;2024-03-06T01:46:43;101879.53;;;8.71;77.64
37852;BME280;23691;52.486;4.650;2024-03-06T01:49:24;101880.53;;;8.70;77.70
37852;BME280;23691;52.486;4.650;2024-03-06T01:52:13;101875.19;;;8.70;77.60
37852;BME280;23691;52.486;4.650;2024-03-06T01:54:59;101876.16;;;8.69;77.47
37852;BME280;23691;52.486;4.650;2024-03-06T01:57:50;101880.53;;;8.70;77.31
37852;BME280;23691;52.486;4.650;2024-03-06T02:04:08;101887.22;;;8.64;76.98
37852;BME280;23691;52.486;4.650;2024-03-06T02:07:31;101892.09;;;8.59;76.90
37852;BME280;23691;52.486;4.650;2024-03-06T02:10:03;101896.69;;;8.57;76.85
37852;BME280;23691;52.486;4.650;2024-03-06T02:16:52;101900.13;;;8.48;76.76
37852;BME280;23691;52.486;4.650;2024-03-06T02:19:50;101900.97;;;8.48;76.81
37852;BME280;23691;52.486;4.650;2024-03-06T02:23:09;101897.44;;;8.48;76.81
37852;BME280;23691;52.486;4.650;2024-03-06T02:26:21;101902.78;;;8.48;76.98
37852;BME280;23691;52.486;4.650;2024-03-06T02:29:34;101897.44;;;8.48;77.09
37852;BME280;23691;52.486;4.650;2024-03-06T02:32:29;101908.00;;;8.49;77.08
37852;BME280;23691;52.486;4.650;2024-03-06T02:41:10;101908.69;;;8.51;77.49
37852;BME280;23691;52.486;4.650;2024-03-06T02:43:41;101905.19;;;8.51;77.48
37852;BME280;23691;52.486;4.650;2024-03-06T02:46:45;101915.75;;;8.52;77.54
37852;BME280;23691;52.486;4.650;2024-03-06T02:49:38;101914.91;;;8.52;77.60
37852;BME280;23691;52.486;4.650;2024-03-06T02:55:32;101907.84;;;8.51;77.69
37852;BME280;23691;52.486;4.650;2024-03-06T02:58:32;101911.50;;;8.50;77.66
37852;BME280;23691;52.486;4.650;2024-03-06T03:05:03;101911.88;;;8.45;78.02
37852;BME280;23691;52.486;4.650;2024-03-06T03:07:56;101904.88;;;8.44;77.87
37852;BME280;23691;52.486;4.650;2024-03-06T03:11:22;101913.56;;;8.46;77.70
37852;BME280;23691;52.486;4.650;2024-03-06T03:13:59;101917.69;;;8.50;77.73
37852;BME280;23691;52.486;4.650;2024-03-06T03:16:46;101914.19;;;8.50;77.70
37852;BME280;23691;52.486;4.650;2024-03-06T03:19:45;101903.75;;;8.47;77.80
37852;BME280;23691;52.486;4.650;2024-03-06T03:22:25;101908.97;;;8.48;77.71
37852;BME280;23691;52.486;4.650;2024-03-06T03:25:32;101910.06;;;8.46;77.82
37852;BME280;23691;52.486;4.650;2024-03-06T03:28:25;101915.66;;;8.43;77.54
37852;BME280;23691;52.486;4.650;2024-03-06T03:31:13;101915.75;;;8.41;77.48
37852;BME280;23691;52.486;4.650;2024-03-06T03:34:15;101909.81;;;8.37;77.33
37852;BME280;23691;52.486;4.650;2024-03-06T03:36:53;101913.56;;;8.35;77.42
37852;BME280;23691;52.486;4.650;2024-03-06T03:42:49;101922.88;;;8.29;77.20
37852;BME280;23691;52.486;4.650;2024-03-06T03:45:48;101916.25;;;8.24;77.19
37852;BME280;23691;52.486;4.650;2024-03-06T03:48:46;101927.16;;;8.21;77.38
37852;BME280;23691;52.486;4.650;2024-03-06T03:51:35;101920.25;;;8.18;77.39
37852;BME280;23691;52.486;4.650;2024-03-06T03:57:29;101931.16;;;8.15;77.12
37852;BME280;23691;52.486;4.650;2024-03-06T04:00:02;101932.13;;;8.14;77.16
37852;BME280;23691;52.486;4.650;2024-03-06T04:02:38;101928.72;;;8.12;77.31
37852;BME280;23691;52.486;4.650;2024-03-06T04:05:14;101927.78;;;8.13;77.38
37852;BME280;23691;52.486;4.650;2024-03-06T04:07:48;101926.06;;;8.12;77.37
37852;BME280;23691;52.486;4.650;2024-03-06T04:10:14;101924.25;;;8.12;77.37
37852;BME280;23691;52.486;4.650;2024-03-06T04:12:39;101921.81;;;8.09;77.61
37852;BME280;23691;52.486;4.650;2024-03-06T04:15:12;101926.78;;;8.14;77.56
37852;BME280;23691;52.486;4.650;2024-03-06T04:17:44;101925.69;;;8.16;77.15
37852;BME280;23691;52.486;4.650;2024-03-06T04:20:11;101924.84;;;8.16;77.51
37852;BME280;23691;52.486;4.650;2024-03-06T04:22:47;101931.03;;;8.16;77.42
37852;BME280;23691;52.486;4.650;2024-03-06T04:25:17;101936.34;;;8.16;77.03
37852;BME280;23691;52.486;4.650;2024-03-06T04:27:56;101933.84;;;8.15;77.07
37852;BME280;23691;52.486;4.650;2024-03-06T04:30:25;101944.59;;;8.13;77.22
37852;BME280;23691;52.486;4.650;2024-03-06T04:32:53;101944.00;;;8.10;76.96
37852;BME280;23691;52.486;4.650;2024-03-06T04:35:22;101944.84;;;8.10;77.23
37852;BME280;23691;52.486;4.650;2024-03-06T04:37:50;101948.63;;;8.08;77.37
37852;BME280;23691;52.486;4.650;2024-03-06T04:40:22;101950.66;;;8.04;77.31
37852;BME280;23691;52.486;4.650;2024-03-06T04:42:58;101949.44;;;7.97;77.67
37852;BME280;23691;52.486;4.650;2024-03-06T04:45:26;101954.91;;;7.95;77.68
37852;BME280;23691;52.486;4.650;2024-03-06T04:47:52;101953.19;;;7.94;77.55
37852;BME280;23691;52.486;4.650;2024-03-06T04:50:21;101960.34;;;7.94;77.71
37852;BME280;23691;52.486;4.650;2024-03-06T04:52:51;101961.09;;;7.96;77.79
37852;BME280;23691;52.486;4.650;2024-03-06T04:55:17;101966.53;;;7.94;77.76
37852;BME280;23691;52.486;4.650;2024-03-06T04:57:54;101971.00;;;7.94;77.75
37852;BME280;23691;52.486;4.650;2024-03-06T05:00:30;101976.34;;;7.94;77.89
37852;BME280;23691;52.486;4.650;2024-03-06T05:03:18;101978.16;;;7.93;77.81
37852;BME280;23691;52.486;4.650;2024-03-06T05:05:52;101981.66;;;7.94;77.76
37852;BME280;23691;52.486;4.650;2024-03-06T05:08:28;101982.50;;;7.94;78.16
37852;BME280;23691;52.486;4.650;2024-03-06T05:14:00;101987.63;;;7.98;78.56
37852;BME280;23691;52.486;4.650;2024-03-06T05:16:36;101987.63;;;7.98;78.46
37852;BME280;23691;52.486;4.650;2024-03-06T05:19:04;101985.66;;;8.00;78.43
37852;BME280;23691;52.486;4.650;2024-03-06T05:21:38;101990.16;;;7.99;78.49
37852;BME280;23691;52.486;4.650;2024-03-06T05:24:39;101992.81;;;7.99;78.69
37852;BME280;23691;52.486;4.650;2024-03-06T05:27:15;101983.88;;;8.00;78.82
37852;BME280;23691;52.486;4.650;2024-03-06T05:29:49;101986.41;;;8.02;78.95
37852;BME280;23691;52.486;4.650;2024-03-06T05:32:16;101992.56;;;8.02;78.80
37852;BME280;23691;52.486;4.650;2024-03-06T05:34:44;101997.06;;;8.02;79.20
37852;BME280;23691;52.486;4.650;2024-03-06T05:37:20;101994.28;;;8.03;79.11
37852;BME280;23691;52.486;4.650;2024-03-06T05:45:10;102007.59;;;8.03;78.80
37852;BME280;23691;52.486;4.650;2024-03-06T05:47:37;102014.63;;;8.04;78.74
37852;BME280;23691;52.486;4.650;2024-03-06T05:50:05;102019.94;;;8.04;78.75
37852;BME280;23691;52.486;4.650;2024-03-06T05:52:33;102018.28;;;8.03;78.81
37852;BME280;23691;52.486;4.650;2024-03-06T05:55:08;102022.13;;;7.99;78.62
37852;BME280;23691;52.486;4.650;2024-03-06T05:57:40;102021.53;;;7.95;78.59
37852;BME280;23691;52.486;4.650;2024-03-06T06:02:50;102028.41;;;7.87;79.07
37852;BME280;23691;52.486;4.650;2024-03-06T06:05:46;102030.97;;;7.88;78.95
37852;BME280;23691;52.486;4.650;2024-03-06T06:08:24;102030.34;;;7.85;78.79
37852;BME280;23691;52.486;4.650;2024-03-06T06:10:51;102040.16;;;7.84;78.76
37852;BME280;23691;52.486;4.650;2024-03-06T06:13:33;102035.81;;;7.83;78.63
37852;BME280;23691;52.486;4.650;2024-03-06T06:16:10;102040.28;;;7.83;78.54
37852;BME280;23691;52.486;4.650;2024-03-06T06:18:42;102046.56;;;7.82;78.49
37852;BME280;23691;52.486;4.650;2024-03-06T06:32:09;102060.88;;;7.81;78.12
37852;BME280;23691;52.486;4.650;2024-03-06T06:34:46;102063.63;;;7.79;78.14
37852;BME280;23691;52.486;4.650;2024-03-06T06:37:20;102068.13;;;7.79;78.18
37852;BME280;23691;52.486;4.650;2024-03-06T06:40:07;102070.53;;;7.82;78.29
37852;BME280;23691;52.486;4.650;2024-03-06T06:42:43;102079.38;;;7.82;78.44
37852;BME280;23691;52.486;4.650;2024-03-06T06:45:15;102079.16;;;7.85;78.44
37852;BME280;23691;52.486;4.650;2024-03-06T06:47:48;102091.16;;;7.91;78.25
37852;BME280;23691;52.486;4.650;2024-03-06T06:50:19;102090.44;;;7.89;78.42
37852;BME280;23691;52.486;4.650;2024-03-06T06:52:53;102093.84;;;7.91;78.59
37852;BME280;23691;52.486;4.650;2024-03-06T06:55:33;102100.63;;;7.95;78.87
37852;BME280;23691;52.486;4.650;2024-03-06T06:58:07;102104.75;;;7.99;78.91
37852;BME280;23691;52.486;4.650;2024-03-06T07:00:45;102110.72;;;8.03;79.02
37852;BME280;23691;52.486;4.650;2024-03-06T07:03:52;102115.91;;;8.04;79.22
37852;BME280;23691;52.486;4.650;2024-03-06T07:07:07;102113.75;;;8.09;79.48
37852;BME280;23691;52.486;4.650;2024-03-06T07:10:09;102120.31;;;8.16;79.52
37852;BME280;23691;52.486;4.650;2024-03-06T07:13:51;102118.03;;;8.23;79.37
37852;BME280;23691;52.486;4.650;2024-03-06T07:16:29;102125.78;;;8.26;79.72
37852;BME280;23691;52.486;4.650;2024-03-06T07:19:58;102124.47;;;8.32;79.52
37852;BME280;23691;52.486;4.650;2024-03-06T07:22:48;102127.75;;;8.35;80.02
37852;BME280;23691;52.486;4.650;2024-03-06T07:29:35;102140.66;;;8.53;80.04
37852;BME280;23691;52.486;4.650;2024-03-06T07:32:27;102138.84;;;8.65;79.94
37852;BME280;23691;52.486;4.650;2024-03-06T07:35:22;102141.75;;;8.73;79.95
37852;BME280;23691;52.486;4.650;2024-03-06T07:38:11;102143.69;;;8.82;79.87
37852;BME280;23691;52.486;4.650;2024-03-06T07:44:47;102153.28;;;8.96;79.87
37852;BME280;23691;52.486;4.650;2024-03-06T07:47:24;102150.22;;;9.00;80.14
37852;BME280;23691;52.486;4.650;2024-03-06T07:50:21;102163.22;;;9.05;79.98
37852;BME280;23691;52.486;4.650;2024-03-06T07:53:10;102165.53;;;9.10;80.16
37852;BME280;23691;52.486;4.650;2024-03-06T07:56:11;102171.34;;;9.26;79.72
37852;BME280;23691;52.486;4.650;2024-03-06T07:59:06;102173.50;;;9.32;79.64
37852;BME280;23691;52.486;4.650;2024-03-06T08:01:42;102172.06;;;9.28;79.77
37852;BME280;23691;52.486;4.650;2024-03-06T08:04:42;102179.84;;;9.31;79.78
37852;BME280;23691;52.486;4.650;2024-03-06T08:07:19;102178.38;;;9.27;79.96
37852;BME280;23691;52.486;4.650;2024-03-06T08:10:39;102177.91;;;9.33;79.81
37852;BME280;23691;52.486;4.650;2024-03-06T08:17:47;102190.88;;;9.38;79.75
37852;BME280;23691;52.486;4.650;2024-03-06T08:24:22;102193.78;;;9.46;79.69
37852;BME280;23691;52.486;4.650;2024-03-06T08:27:27;102207.72;;;9.50;79.54
37852;BME280;23691;52.486;4.650;2024-03-06T08:36:33;102225.19;;;9.65;79.22
37852;BME280;23691;52.486;4.650;2024-03-06T08:41:42;102218.84;;;9.77;79.36
37852;BME280;23691;52.486;4.650;2024-03-06T08:58:02;102238.97;;;10.36;78.31
37852;BME280;23691;52.486;4.650;2024-03-06T09:04:14;102244.31;;;10.57;78.01
37852;BME280;23691;52.486;4.650;2024-03-06T09:06:56;102252.28;;;10.68;77.77
37852;BME280;23691;52.486;4.650;2024-03-06T09:09:46;102247.25;;;10.75;77.51
37852;BME280;23691;52.486;4.650;2024-03-06T09:12:29;102244.78;;;10.83;77.12
37852;BME280;23691;52.486;4.650;2024-03-06T09:15:16;102248.34;;;10.93;76.96
37852;BME280;23691;52.486;4.650;2024-03-06T09:21:42;102257.22;;;11.15;76.38
37852;BME280;23691;52.486;4.650;2024-03-06T09:24:21;102249.66;;;11.30;75.99
37852;BME280;23691;52.486;4.650;2024-03-06T09:27:00;102255.91;;;11.40;75.79
37852;BME280;23691;52.486;4.650;2024-03-06T09:30:18;102261.00;;;11.53;75.37
37852;BME280;23691;52.486;4.650;2024-03-06T09:32:55;102261.88;;;11.63;75.12
37852;BME280;23691;52.486;4.650;2024-03-06T09:35:43;102267.00;;;11.76;74.91
37852;BME280;23691;52.486;4.650;2024-03-06T09:41:52;102274.69;;;11.90;74.40
37852;BME280;23691;52.486;4.650;2024-03-06T09:44:32;102277.78;;;11.95;74.08
37852;BME280;23691;52.486;4.650;2024-03-06T09:47:15;102271.72;;;12.03;73.69
37852;BME280;23691;52.486;4.650;2024-03-06T09:49:55;102289.28;;;12.17;73.57
37852;BME280;23691;52.486;4.650;2024-03-06T09:52:37;102282.66;;;12.31;73.46
37852;BME280;23691;52.486;4.650;2024-03-06T09:55:47;102288.56;;;12.44;73.05
37852;BME280;23691;52.486;4.650;2024-03-06T09:58:25;102283.63;;;12.59;72.99
37852;BME280;23691;52.486;4.650;2024-03-06T10:01:14;102284.16;;;12.72;72.46
37852;BME280;23691;52.486;4.650;2024-03-06T10:04:24;102293.06;;;12.82;72.00
37852;BME280;23691;52.486;4.650;2024-03-06T10:07:01;102291.34;;;12.91;71.68
37852;BME280;23691;52.486;4.650;2024-03-06T10:09:42;102289.66;;;12.90;71.55
37852;BME280;23691;52.486;4.650;2024-03-06T10:12:54;102295.16;;;12.88;71.59
37852;BME280;23691;52.486;4.650;2024-03-06T10:16:14;102290.38;;;12.92;70.89
37852;BME280;23691;52.486;4.650;2024-03-06T10:18:47;102291.91;;;12.95;71.19
37852;BME280;23691;52.486;4.650;2024-03-06T10:21:17;102301.66;;;12.96;70.85
37852;BME280;23691;52.486;4.650;2024-03-06T10:24:13;102294.75;;;12.93;70.83
37852;BME280;23691;52.486;4.650;2024-03-06T10:27:07;102306.50;;;12.92;70.80
37852;BME280;23691;52.486;4.650;2024-03-06T10:30:32;102306.03;;;12.97;70.76
37852;BME280;23691;52.486;4.650;2024-03-06T10:33:36;102307.44;;;13.01;70.52
37852;BME280;23691;52.486;4.650;2024-03-06T10:36:31;102306.72;;;13.08;70.52
37852;BME280;23691;52.486;4.650;2024-03-06T10:43:06;102310.94;;;13.30;69.89
37852;BME280;23691;52.486;4.650;2024-03-06T10:49:29;102312.56;;;13.41;69.29
37852;BME280;23691;52.486;4.650;2024-03-06T10:52:04;102326.16;;;13.49;68.91
37852;BME280;23691;52.486;4.650;2024-03-06T10:55:25;102316.06;;;13.61;68.42
37852;BME280;23691;52.486;4.650;2024-03-06T10:57:47;102322.22;;;13.71;67.83
37852;BME280;23691;52.486;4.650;2024-03-06T11:00:42;102324.44;;;13.86;67.80
37852;BME280;23691;52.486;4.650;2024-03-06T11:03:24;102322.47;;;14.06;67.31
37852;BME280;23691;52.486;4.650;2024-03-06T11:28:30;102335.19;;;14.85;63.51
37852;BME280;23691;52.486;4.650;2024-03-06T11:41:54;102336.78;;;14.96;62.68
37852;BME280;23691;52.486;4.650;2024-03-06T11:44:35;102343.31;;;15.11;62.22
37852;BME280;23691;52.486;4.650;2024-03-06T11:47:08;102347.91;;;15.19;61.74
37852;BME280;23691;52.486;4.650;2024-03-06T11:49:35;102350.53;;;15.11;61.54
37852;BME280;23691;52.486;4.650;2024-03-06T11:52:18;102349.34;;;15.13;61.23
37852;BME280;23691;52.486;4.650;2024-03-06T11:55:02;102350.13;;;15.23;61.19
37852;BME280;23691;52.486;4.650;2024-03-06T11:58:22;102349.69;;;15.36;61.06
37852;BME280;23691;52.486;4.650;2024-03-06T12:00:54;102351.13;;;15.49;60.76
37852;BME280;23691;52.486;4.650;2024-03-06T12:03:20;102357.38;;;15.57;60.17
37852;BME280;23691;52.486;4.650;2024-03-06T12:08:45;102346.28;;;15.60;59.26
37852;BME280;23691;52.486;4.650;2024-03-06T12:11:16;102355.81;;;15.73;59.01
37852;BME280;23691;52.486;4.650;2024-03-06T12:17:11;102349.50;;;15.90;57.85
37852;BME280;23691;52.486;4.650;2024-03-06T12:23:49;102352.97;;;15.82;57.76
37852;BME280;23691;52.486;4.650;2024-03-06T12:26:22;102358.69;;;15.71;58.24
37852;BME280;23691;52.486;4.650;2024-03-06T12:29:16;102364.16;;;15.61;58.45
37852;BME280;23691;52.486;4.650;2024-03-06T12:31:56;102362.63;;;15.59;59.01
37852;BME280;23691;52.486;4.650;2024-03-06T12:34:23;102360.63;;;15.61;58.81
37852;BME280;23691;52.486;4.650;2024-03-06T12:40:26;102367.13;;;15.76;58.85
37852;BME280;23691;52.486;4.650;2024-03-06T12:43:07;102371.44;;;15.69;58.68
37852;BME280;23691;52.486;4.650;2024-03-06T12:46:16;102365.84;;;15.62;58.94
37852;BME280;23691;52.486;4.650;2024-03-06T12:48:58;102368.28;;;15.48;59.23
37852;BME280;23691;52.486;4.650;2024-03-06T12:51:53;102363.97;;;15.29;59.31
37852;BME280;23691;52.486;4.650;2024-03-06T12:57:56;102368.09;;;15.15;59.46
37852;BME280;23691;52.486;4.650;2024-03-06T13:00:32;102360.13;;;15.13;59.04
37852;BME280;23691;52.486;4.650;2024-03-06T13:04:18;102369.84;;;15.06;59.13
37852;BME280;23691;52.486;4.650;2024-03-06T13:07:24;102373.25;;;15.08;59.16
37852;BME280;23691;52.486;4.650;2024-03-06T13:17:58;102370.91;;;14.87;59.85
37852;BME280;23691;52.486;4.650;2024-03-06T13:21:03;102375.59;;;14.85;59.73
37852;BME280;23691;52.486;4.650;2024-03-06T13:24:14;102375.91;;;14.82;60.18
37852;BME280;23691;52.486;4.650;2024-03-06T13:26:42;102376.63;;;14.84;59.84
37852;BME280;23691;52.486;4.650;2024-03-06T13:29:43;102384.16;;;14.80;59.65
37852;BME280;23691;52.486;4.650;2024-03-06T13:32:34;102384.09;;;14.72;59.82
37852;BME280;23691;52.486;4.650;2024-03-06T13:35:33;102392.06;;;14.64;60.00
37852;BME280;23691;52.486;4.650;2024-03-06T13:38:28;102388.00;;;14.60;60.21
37852;BME280;23691;52.486;4.650;2024-03-06T13:41:19;102382.50;;;14.52;59.86
37852;BME280;23691;52.486;4.650;2024-03-06T13:44:15;102390.88;;;14.49;59.87
37852;BME280;23691;52.486;4.650;2024-03-06T13:47:01;102391.91;;;14.48;59.92
37852;BME280;23691;52.486;4.650;2024-03-06T13:50:18;102388.81;;;14.43;59.79
37852;BME280;23691;52.486;4.650;2024-03-06T13:53:22;102403.56;;;14.38;59.92
37852;BME280;23691;52.486;4.650;2024-03-06T13:56:17;102395.34;;;14.40;60.01
37852;BME280;23691;52.486;4.650;2024-03-06T13:58:51;102398.19;;;14.38;60.10
37852;BME280;23691;52.486;4.650;2024-03-06T14:01:22;102404.09;;;14.42;59.89
37852;BME280;23691;52.486;4.650;2024-03-06T14:03:53;102403.03;;;14.35;60.19
37852;BME280;23691;52.486;4.650;2024-03-06T14:06:47;102399.78;;;14.31;60.15
37852;BME280;23691;52.486;4.650;2024-03-06T14:09:23;102396.09;;;14.32;60.42
37852;BME280;23691;52.486;4.650;2024-03-06T14:12:49;102396.63;;;14.36;60.52
37852;BME280;23691;52.486;4.650;2024-03-06T14:15:39;102402.16;;;14.34;60.42
37852;BME280;23691;52.486;4.650;2024-03-06T14:21:31;102400.47;;;14.33;60.89
37852;BME280;23691;52.486;4.650;2024-03-06T14:24:03;102406.72;;;14.34;60.73
37852;BME280;23691;52.486;4.650;2024-03-06T14:26:37;102403.31;;;14.32;61.15
37852;BME280;23691;52.486;4.650;2024-03-06T14:29:11;102399.94;;;14.30;61.33
37852;BME280;23691;52.486;4.650;2024-03-06T14:31:50;102401.94;;;14.28;61.57
37852;BME280;23691;52.486;4.650;2024-03-06T14:34:26;102401.94;;;14.28;61.28
37852;BME280;23691;52.486;4.650;2024-03-06T14:36:54;102410.78;;;14.20;61.69
37852;BME280;23691;52.486;4.650;2024-03-06T14:39:29;102418.59;;;14.13;61.99
37852;BME280;23691;52.486;4.650;2024-03-06T14:42:24;102421.16;;;14.05;62.35
37852;BME280;23691;52.486;4.650;2024-03-06T14:45:19;102417.09;;;14.01;62.19
37852;BME280;23691;52.486;4.650;2024-03-06T14:52:52;102422.66;;;13.90;62.51
37852;BME280;23691;52.486;4.650;2024-03-06T14:55:21;102422.66;;;13.90;62.48
37852;BME280;23691;52.486;4.650;2024-03-06T14:58:12;102427.50;;;13.86;62.49
37852;BME280;23691;52.486;4.650;2024-03-06T15:01:40;102429.22;;;13.78;62.64
37852;BME280;23691;52.486;4.650;2024-03-06T15:04:19;102424.00;;;13.76;62.67
37852;BME280;23691;52.486;4.650;2024-03-06T15:10:41;102433.97;;;13.56;62.62
37852;BME280;23691;52.486;4.650;2024-03-06T15:17:23;102438.78;;;13.52;62.79
37852;BME280;23691;52.486;4.650;2024-03-06T15:20:02;102435.34;;;13.60;62.88
37852;BME280;23691;52.486;4.650;2024-03-06T15:22:36;102433.50;;;13.61;62.61
37852;BME280;23691;52.486;4.650;2024-03-06T15:25:30;102439.91;;;13.60;62.14
37852;BME280;23691;52.486;4.650;2024-03-06T15:28:17;102439.19;;;13.58;61.84
37852;BME280;23691;52.486;4.650;2024-03-06T15:31:09;102438.78;;;13.52;61.68
37852;BME280;23691;52.486;4.650;2024-03-06T15:33:48;102447.13;;;13.49;61.44
37852;BME280;23691;52.486;4.650;2024-03-06T15:36:21;102455.94;;;13.42;61.21
37852;BME280;23691;52.486;4.650;2024-03-06T15:42:11;102445.03;;;13.34;61.17
37852;BME280;23691;52.486;4.650;2024-03-06T15:45:13;102452.13;;;13.35;61.26
37852;BME280;23691;52.486;4.650;2024-03-06T15:47:53;102454.09;;;13.32;61.25
37852;BME280;23691;52.486;4.650;2024-03-06T15:50:45;102442.34;;;13.34;60.83
37852;BME280;23691;52.486;4.650;2024-03-06T15:53:13;102445.75;;;13.36;61.20
37852;BME280;23691;52.486;4.650;2024-03-06T15:55:45;102442.75;;;13.39;61.71
37852;BME280;23691;52.486;4.650;2024-03-06T15:58:20;102448.56;;;13.44;62.19
37852;BME280;23691;52.486;4.650;2024-03-06T16:01:02;102448.56;;;13.44;62.74
37852;BME280;23691;52.486;4.650;2024-03-06T16:03:37;102446.88;;;13.43;63.44
37852;BME280;23691;52.486;4.650;2024-03-06T16:06:20;102450.81;;;13.39;64.19
37852;BME280;23691;52.486;4.650;2024-03-06T16:08:52;102450.41;;;13.34;64.10
37852;BME280;23691;52.486;4.650;2024-03-06T16:11:21;102451.84;;;13.28;64.43
37852;BME280;23691;52.486;4.650;2024-03-06T16:13:50;102455.22;;;13.20;64.80
37852;BME280;23691;52.486;4.650;2024-03-06T16:16:25;102458.31;;;13.16;64.79
37852;BME280;23691;52.486;4.650;2024-03-06T16:18:54;102457.19;;;13.08;64.98
37852;BME280;23691;52.486;4.650;2024-03-06T16:21:24;102466.53;;;13.04;65.00
37852;BME280;23691;52.486;4.650;2024-03-06T16:24:01;102462.00;;;12.95;65.29
37852;BME280;23691;52.486;4.650;2024-03-06T16:26:32;102461.00;;;12.86;65.36
37852;BME280;23691;52.486;4.650;2024-03-06T16:29:03;102468.06;;;12.78;65.52
37852;BME280;23691;52.486;4.650;2024-03-06T16:31:34;102467.63;;;12.73;65.81
37852;BME280;23691;52.486;4.650;2024-03-06T16:34:02;102476.66;;;12.72;65.89
37852;BME280;23691;52.486;4.650;2024-03-06T16:36:32;102480.63;;;12.67;66.04
37852;BME280;23691;52.486;4.650;2024-03-06T16:39:23;102476.22;;;12.66;66.20
37852;BME280;23691;52.486;4.650;2024-03-06T16:42:00;102482.00;;;12.62;66.26
37852;BME280;23691;52.486;4.650;2024-03-06T16:44:28;102485.28;;;12.56;66.41
37852;BME280;23691;52.486;4.650;2024-03-06T16:47:01;102484.97;;;12.49;66.54
37852;BME280;23691;52.486;4.650;2024-03-06T16:49:34;102489.03;;;12.43;66.71
37852;BME280;23691;52.486;4.650;2024-03-06T16:52:03;102497.09;;;12.43;66.60
37852;BME280;23691;52.486;4.650;2024-03-06T16:54:41;102501.75;;;12.41;66.58
37852;BME280;23691;52.486;4.650;2024-03-06T16:57:18;102496.91;;;12.35;66.42
37852;BME280;23691;52.486;4.650;2024-03-06T16:59:44;102500.88;;;12.31;66.41
37852;BME280;23691;52.486;4.650;2024-03-06T17:02:15;102510.16;;;12.27;66.50
37852;BME280;23691;52.486;4.650;2024-03-06T17:04:50;102507.03;;;12.22;66.45
37852;BME280;23691;52.486;4.650;2024-03-06T17:07:19;102499.53;;;12.16;66.49
37852;BME280;23691;52.486;4.650;2024-03-06T17:09:48;102501.63;;;12.12;66.52
37852;BME280;23691;52.486;4.650;2024-03-06T17:12:29;102506.28;;;12.10;66.62
37852;BME280;23691;52.486;4.650;2024-03-06T17:15:05;102513.59;;;12.08;66.49
37852;BME280;23691;52.486;4.650;2024-03-06T17:17:35;102515.28;;;11.99;66.56
37852;BME280;23691;52.486;4.650;2024-03-06T17:20:05;102513.81;;;11.95;66.69
37852;BME280;23691;52.486;4.650;2024-03-06T17:22:39;102522.25;;;11.91;66.80
37852;BME280;23691;52.486;4.650;2024-03-06T17:25:08;102519.94;;;11.86;66.82
37852;BME280;23691;52.486;4.650;2024-03-06T17:27:43;102519.84;;;11.88;66.52
37852;BME280;23691;52.486;4.650;2024-03-06T17:30:14;102522.72;;;11.75;66.81
37852;BME280;23691;52.486;4.650;2024-03-06T17:32:43;102533.44;;;11.75;66.80
37852;BME280;23691;52.486;4.650;2024-03-06T17:35:11;102540.31;;;11.68;66.90
37852;BME280;23691;52.486;4.650;2024-03-06T17:37:45;102531.63;;;11.54;67.20
37852;BME280;23691;52.486;4.650;2024-03-06T17:40:18;102542.34;;;11.54;67.24
37852;BME280;23691;52.486;4.650;2024-03-06T17:43:00;102545.06;;;11.43;67.35